Time;durP1;ratioP1;P1;durP2;ratioP2;P2;SDS_P1;SDS_P2;PMS_P1;PMS_P2;Temp;Humidity;BMP_temperature;BMP_pressure;BME280_temperature;BME280_humidity;BME280_pressure;Samples;Min_cycle;Max_cycle;Signal;HPM_P1;HPM_P2
2023/04/23 00:00:24;;;;;;;92.70;61.87;;;;;;;;;;5037849;28;20180;-79
2023/04/23 00:02:52;;;;;;;96.03;60.90;;;;;;;;;;5021240;28;20212;-79
2023/04/23 00:05:19;;;;;;;94.10;62.13;;;;;;;;;;5055590;28;20217;-79
2023/04/23 00:07:45;;;;;;;95.10;59.97;;;;;;;;;;5021056;28;20266;-79
2023/04/23 00:10:12;;;;;;;93.33;62.23;;;;;;;;;;5037469;28;20183;-79
2023/04/23 00:12:38;;;;;;;89.23;61.07;;;;;;;;;;5020937;28;20188;-79
2023/04/23 00:15:06;;;;;;;102.17;64.17;;;;;;;;;;5037237;28;20186;-79
2023/04/23 00:17:32;;;;;;;101.60;65.47;;;;;;;;;;5038248;28;20179;-81
2023/04/23 00:19:58;;;;;;;102.87;65.80;;;;;;;;;;5021792;28;20188;-81
2023/04/23 00:22:24;;;;;;;106.83;67.70;;;;;;;;;;5037313;28;20215;-81
2023/04/23 00:24:50;;;;;;;103.97;65.90;;;;;;;;;;5021129;28;20187;-81
2023/04/23 00:27:17;;;;;;;107.63;68.07;;;;;;;;;;5037555;28;20176;-81
2023/04/23 00:29:45;;;;;;;108.73;68.67;;;;;;;;;;5037258;28;20180;-81
2023/04/23 00:32:11;;;;;;;108.03;65.30;;;;;;;;;;5055035;28;20223;-82
2023/04/23 00:34:37;;;;;;;103.07;64.37;;;;;;;;;;5065109;28;20178;-77
2023/04/23 00:37:05;;;;;;;102.93;65.50;;;;;;;;;;5076935;28;20194;-76
2023/04/23 00:39:31;;;;;;;106.33;66.10;;;;;;;;;;5094073;28;20203;-79
2023/04/23 00:41:59;;;;;;;108.10;64.40;;;;;;;;;;5077422;28;20198;-79
2023/04/23 00:44:25;;;;;;;111.00;64.57;;;;;;;;;;5076876;28;20182;-79
2023/04/23 00:46:51;;;;;;;107.20;64.87;;;;;;;;;;5071787;28;20182;-77
2023/04/23 00:49:18;;;;;;;105.10;63.20;;;;;;;;;;5056130;28;20207;-79
2023/04/23 00:51:44;;;;;;;107.17;63.47;;;;;;;;;;5056892;28;20189;-79
2023/04/23 00:54:10;;;;;;;101.67;62.40;;;;;;;;;;5076823;28;20234;-77
2023/04/23 00:56:36;;;;;;;109.50;63.93;;;;;;;;;;5076876;28;20178;-77
2023/04/23 00:59:02;;;;;;;101.50;63.43;;;;;;;;;;5094600;28;20174;-77
2023/04/23 01:01:29;;;;;;;106.57;63.97;;;;;;;;;;5093601;28;20323;-77
2023/04/23 01:03:55;;;;;;;106.33;63.17;;;;;;;;;;5076597;28;20214;-77
2023/04/23 01:06:23;;;;;;;106.97;64.80;;;;;;;;;;5076637;28;20190;-77
2023/04/23 01:08:50;;;;;;;110.63;65.17;;;;;;;;;;5076923;28;20183;-77
2023/04/23 01:11:16;;;;;;;99.50;59.87;;;;;;;;;;5077143;28;20186;-77
2023/04/23 01:13:42;;;;;;;90.13;56.10;;;;;;;;;;5076820;28;20182;-77
2023/04/23 01:16:09;;;;;;;82.83;53.57;;;;;;;;;;5076308;28;20181;-77
2023/04/23 01:18:35;;;;;;;69.53;47.57;;;;;;;;;;5066763;28;20274;-77
2023/04/23 01:21:02;;;;;;;65.80;46.13;;;;;;;;;;5056522;28;20184;-77
2023/04/23 01:23:28;;;;;;;68.27;45.43;;;;;;;;;;5056409;28;20214;-77
2023/04/23 01:25:54;;;;;;;63.50;43.37;;;;;;;;;;5057181;28;20280;-77
2023/04/23 01:28:20;;;;;;;60.67;43.10;;;;;;;;;;5056323;28;20217;-78
2023/04/23 01:30:47;;;;;;;65.17;44.73;;;;;;;;;;5058571;28;20253;-78
2023/04/23 01:33:13;;;;;;;60.73;44.37;;;;;;;;;;5071888;28;20191;-78
2023/04/23 01:35:40;;;;;;;59.30;40.80;;;;;;;;;;5056300;28;20191;-78
2023/04/23 01:38:08;;;;;;;55.27;41.03;;;;;;;;;;5056194;28;20233;-78
2023/04/23 01:40:34;;;;;;;54.33;43.13;;;;;;;;;;5056367;28;20213;-78
2023/04/23 01:43:00;;;;;;;59.23;43.67;;;;;;;;;;5056253;28;20211;-80
2023/04/23 01:45:27;;;;;;;62.30;43.40;;;;;;;;;;5063360;23;20308;-78
2023/04/23 01:47:53;;;;;;;60.43;43.30;;;;;;;;;;5022818;28;20179;-78
2023/04/23 01:50:22;;;;;;;60.47;43.87;;;;;;;;;;5040683;28;20210;-78
2023/04/23 01:52:48;;;;;;;63.47;45.13;;;;;;;;;;5035801;28;20176;-78
2023/04/23 01:55:14;;;;;;;68.53;45.37;;;;;;;;;;5019813;28;20199;-77
2023/04/23 01:57:40;;;;;;;71.63;46.93;;;;;;;;;;5035630;28;20176;-79
2023/04/23 02:00:12;;;;;;;67.60;46.27;;;;;;;;;;5035893;28;20180;-79
2023/04/23 02:02:39;;;;;;;71.20;46.93;;;;;;;;;;5050925;28;20211;-80
2023/04/23 02:05:09;;;;;;;71.67;48.57;;;;;;;;;;5057720;28;20180;-79
2023/04/23 02:07:35;;;;;;;71.47;48.03;;;;;;;;;;5039420;28;20176;-80
2023/04/23 02:10:02;;;;;;;79.10;48.43;;;;;;;;;;5037478;28;20187;-79
2023/04/23 02:12:28;;;;;;;77.03;48.43;;;;;;;;;;5059512;28;20260;-80
2023/04/23 02:14:55;;;;;;;78.07;50.30;;;;;;;;;;5059233;28;20229;-77
2023/04/23 02:17:21;;;;;;;76.80;50.67;;;;;;;;;;5042788;28;20302;-77
2023/04/23 02:19:48;;;;;;;80.83;52.87;;;;;;;;;;5059500;28;20175;-77
2023/04/23 02:22:14;;;;;;;82.03;53.03;;;;;;;;;;5042756;28;20207;-77
2023/04/23 02:24:40;;;;;;;80.43;52.60;;;;;;;;;;5046455;28;20184;-77
2023/04/23 02:27:07;;;;;;;85.17;52.40;;;;;;;;;;5037492;28;20187;-77
2023/04/23 02:29:33;;;;;;;79.70;51.53;;;;;;;;;;5058720;28;20211;-77
2023/04/23 02:31:59;;;;;;;77.70;51.60;;;;;;;;;;5042674;28;20324;-79
2023/04/23 02:34:25;;;;;;;82.00;51.33;;;;;;;;;;5042353;28;20191;-80
2023/04/23 02:36:51;;;;;;;80.47;52.03;;;;;;;;;;5058632;28;20195;-80
2023/04/23 02:39:17;;;;;;;82.93;52.40;;;;;;;;;;5050516;28;20191;-79
2023/04/23 02:41:43;;;;;;;77.47;50.97;;;;;;;;;;5038734;28;20179;-80
2023/04/23 02:44:09;;;;;;;80.77;50.87;;;;;;;;;;5039737;28;20204;-79
2023/04/23 02:46:36;;;;;;;77.30;51.63;;;;;;;;;;5068212;28;20302;-79
2023/04/23 02:49:03;;;;;;;79.37;51.17;;;;;;;;;;5054808;28;20282;-79
2023/04/23 02:51:30;;;;;;;78.23;52.10;;;;;;;;;;5058288;28;20176;-79
2023/04/23 02:53:56;;;;;;;80.93;51.50;;;;;;;;;;5058156;28;20408;-79
2023/04/23 02:56:22;;;;;;;83.03;51.90;;;;;;;;;;5055799;28;20199;-79
2023/04/23 02:58:48;;;;;;;85.13;52.50;;;;;;;;;;5056931;28;20202;-79
2023/04/23 03:01:15;;;;;;;80.30;52.70;;;;;;;;;;5043752;28;20183;-79
2023/04/23 03:03:41;;;;;;;89.13;54.00;;;;;;;;;;5058020;28;20280;-79
2023/04/23 03:06:07;;;;;;;88.70;53.93;;;;;;;;;;5054554;28;20276;-77
2023/04/23 03:08:33;;;;;;;89.33;54.70;;;;;;;;;;5057364;28;20236;-77
2023/04/23 03:10:59;;;;;;;88.70;54.43;;;;;;;;;;5055110;28;20171;-77
2023/04/23 03:13:25;;;;;;;85.70;53.80;;;;;;;;;;5056662;28;20179;-77
2023/04/23 03:15:53;;;;;;;90.93;53.53;;;;;;;;;;5037895;28;20512;-77
2023/04/23 03:18:19;;;;;;;95.80;57.23;;;;;;;;;;5054202;28;20175;-77
2023/04/23 03:20:45;;;;;;;85.87;52.23;;;;;;;;;;5056749;28;20179;-77
2023/04/23 03:23:11;;;;;;;88.80;53.53;;;;;;;;;;5054173;28;20205;-77
2023/04/23 03:25:37;;;;;;;90.00;53.37;;;;;;;;;;5041012;28;20262;-77
2023/04/23 03:28:03;;;;;;;92.60;54.67;;;;;;;;;;5064650;28;20221;-77
2023/04/23 03:30:29;;;;;;;88.87;53.47;;;;;;;;;;5061297;28;20190;-77
2023/04/23 03:32:55;;;;;;;88.70;52.67;;;;;;;;;;5061281;28;20186;-77
2023/04/23 03:35:22;;;;;;;84.40;50.37;;;;;;;;;;5061329;28;20187;-77
2023/04/23 03:37:48;;;;;;;84.13;52.30;;;;;;;;;;5041611;28;20245;-77
2023/04/23 03:40:14;;;;;;;91.43;52.00;;;;;;;;;;5045690;28;20183;-77
2023/04/23 03:42:40;;;;;;;90.60;52.93;;;;;;;;;;5076988;28;20212;-77
2023/04/23 03:45:06;;;;;;;90.50;54.23;;;;;;;;;;5077625;28;20222;-77
2023/04/23 03:47:32;;;;;;;92.80;53.97;;;;;;;;;;5077163;28;20220;-77
2023/04/23 03:49:58;;;;;;;90.13;53.30;;;;;;;;;;5070760;28;20175;-77
2023/04/23 03:52:25;;;;;;;95.37;54.13;;;;;;;;;;5041544;28;20191;-77
2023/04/23 03:54:51;;;;;;;85.37;52.57;;;;;;;;;;5041007;28;20232;-80
2023/04/23 03:57:17;;;;;;;88.73;52.63;;;;;;;;;;5057570;28;20209;-80
2023/04/23 03:59:43;;;;;;;92.93;52.27;;;;;;;;;;5057303;28;20187;-79
2023/04/23 04:02:09;;;;;;;84.20;52.00;;;;;;;;;;5049064;28;20206;-80
2023/04/23 04:04:35;;;;;;;89.17;52.53;;;;;;;;;;5060732;28;20189;-79
2023/04/23 04:07:01;;;;;;;94.90;55.17;;;;;;;;;;5057670;28;20176;-80
2023/04/23 04:09:28;;;;;;;96.37;56.53;;;;;;;;;;5040423;28;20184;-77
2023/04/23 04:11:54;;;;;;;105.03;55.80;;;;;;;;;;5074943;28;20182;-77
2023/04/23 04:14:21;;;;;;;97.13;54.97;;;;;;;;;;5057106;28;20183;-77
2023/04/23 04:16:47;;;;;;;99.17;54.53;;;;;;;;;;5039573;28;20179;-77
2023/04/23 04:19:13;;;;;;;98.23;55.33;;;;;;;;;;5067366;28;20279;-77
2023/04/23 04:21:39;;;;;;;92.73;54.10;;;;;;;;;;5060567;28;20172;-77
2023/04/23 04:24:05;;;;;;;92.43;54.30;;;;;;;;;;5038906;28;20195;-77
2023/04/23 04:26:31;;;;;;;98.70;55.77;;;;;;;;;;5039164;28;20233;-79
2023/04/23 04:28:58;;;;;;;99.93;54.97;;;;;;;;;;5063366;28;20190;-80
2023/04/23 04:31:27;;;;;;;92.10;52.57;;;;;;;;;;5053701;28;20179;-79
2023/04/23 04:33:54;;;;;;;91.87;52.33;;;;;;;;;;5039431;28;20249;-79
2023/04/23 04:36:20;;;;;;;90.83;50.43;;;;;;;;;;5053331;28;20175;-79
2023/04/23 04:38:46;;;;;;;91.30;50.63;;;;;;;;;;5039255;28;20186;-79
2023/04/23 04:41:13;;;;;;;78.93;46.57;;;;;;;;;;5036264;28;20179;-79
2023/04/23 04:43:40;;;;;;;85.37;47.83;;;;;;;;;;5039176;28;20305;-79
2023/04/23 04:46:06;;;;;;;87.17;48.83;;;;;;;;;;5052818;28;20214;-79
2023/04/23 04:48:32;;;;;;;84.80;47.77;;;;;;;;;;5036965;28;20184;-79
2023/04/23 04:50:58;;;;;;;85.33;49.10;;;;;;;;;;5031406;28;20171;-79
2023/04/23 04:53:24;;;;;;;80.73;47.17;;;;;;;;;;5046841;28;20198;-80
2023/04/23 04:55:50;;;;;;;80.47;48.07;;;;;;;;;;5029666;28;20179;-80
2023/04/23 04:58:16;;;;;;;80.53;48.37;;;;;;;;;;5028031;28;20188;-78
2023/04/23 05:00:43;;;;;;;84.80;49.20;;;;;;;;;;5030725;28;20194;-79
2023/04/23 05:03:09;;;;;;;81.03;49.33;;;;;;;;;;5028832;28;20231;-80
2023/04/23 05:05:36;;;;;;;77.50;47.30;;;;;;;;;;5044545;28;20226;-80
2023/04/23 05:08:02;;;;;;;81.83;49.33;;;;;;;;;;5047262;28;20267;-80
2023/04/23 05:10:28;;;;;;;76.97;48.87;;;;;;;;;;5032823;28;20262;-80
2023/04/23 05:12:56;;;;;;;77.70;48.23;;;;;;;;;;5046256;28;20180;-80
2023/04/23 05:15:22;;;;;;;86.43;49.97;;;;;;;;;;5044241;28;20267;-80
2023/04/23 05:17:52;;;;;;;78.43;49.30;;;;;;;;;;5029390;28;20191;-80
2023/04/23 05:20:18;;;;;;;87.00;50.30;;;;;;;;;;5047637;28;20193;-80
2023/04/23 05:22:44;;;;;;;84.43;51.37;;;;;;;;;;5065199;28;20274;-79
2023/04/23 05:25:11;;;;;;;84.87;50.17;;;;;;;;;;5027668;28;20211;-80
2023/04/23 05:27:37;;;;;;;78.77;50.20;;;;;;;;;;5052419;28;20175;-80
2023/04/23 05:30:04;;;;;;;79.43;48.30;;;;;;;;;;5040385;28;20176;-80
2023/04/23 05:32:31;;;;;;;73.83;48.70;;;;;;;;;;5049804;28;20179;-80
2023/04/23 05:34:58;;;;;;;72.63;46.20;;;;;;;;;;5045271;28;20290;-77
2023/04/23 05:37:25;;;;;;;66.37;44.90;;;;;;;;;;5038183;28;20195;-78
2023/04/23 05:39:51;;;;;;;69.27;44.30;;;;;;;;;;5040561;28;20187;-77
2023/04/23 05:42:17;;;;;;;65.03;45.47;;;;;;;;;;5040520;28;20204;-77
2023/04/23 05:44:43;;;;;;;67.10;44.83;;;;;;;;;;5043652;28;20168;-77
2023/04/23 05:47:10;;;;;;;65.77;44.60;;;;;;;;;;5044338;28;20222;-77
2023/04/23 05:49:36;;;;;;;62.87;43.87;;;;;;;;;;5030007;28;20180;-77
2023/04/23 05:52:02;;;;;;;60.53;43.53;;;;;;;;;;5024076;28;20182;-78
2023/04/23 05:54:28;;;;;;;57.63;41.50;;;;;;;;;;5052306;28;20232;-78
2023/04/23 05:56:54;;;;;;;56.67;41.27;;;;;;;;;;5043704;28;20198;-78
2023/04/23 05:59:21;;;;;;;56.90;40.60;;;;;;;;;;5077769;28;20167;-77
2023/04/23 06:01:47;;;;;;;52.13;40.03;;;;;;;;;;5077656;28;20178;-78
2023/04/23 06:04:14;;;;;;;55.20;40.97;;;;;;;;;;5060159;28;20179;-78
2023/04/23 06:06:40;;;;;;;52.37;39.50;;;;;;;;;;5059978;28;20182;-78
2023/04/23 06:09:06;;;;;;;49.73;39.50;;;;;;;;;;5043397;28;20183;-77
2023/04/23 06:11:32;;;;;;;51.60;39.40;;;;;;;;;;5060075;28;20262;-78
2023/04/23 06:13:58;;;;;;;54.37;40.67;;;;;;;;;;5043205;28;20191;-78
2023/04/23 06:16:25;;;;;;;52.73;39.93;;;;;;;;;;5040542;28;20191;-78
2023/04/23 06:18:53;;;;;;;48.77;39.80;;;;;;;;;;5077359;28;20225;-78
2023/04/23 06:21:19;;;;;;;51.43;39.73;;;;;;;;;;5043155;28;20279;-78
2023/04/23 06:23:45;;;;;;;52.40;40.17;;;;;;;;;;5059340;28;20240;-78
2023/04/23 06:26:11;;;;;;;47.53;38.37;;;;;;;;;;5042677;28;20183;-78
2023/04/23 06:28:38;;;;;;;45.73;38.77;;;;;;;;;;5042912;28;20245;-78
2023/04/23 06:31:04;;;;;;;45.20;37.97;;;;;;;;;;5050905;28;20179;-78
2023/04/23 06:33:30;;;;;;;46.07;37.83;;;;;;;;;;5042964;28;20186;-78
2023/04/23 06:35:56;;;;;;;43.60;38.03;;;;;;;;;;5059439;28;20179;-78
2023/04/23 06:38:23;;;;;;;49.07;37.97;;;;;;;;;;5062372;28;20183;-78
2023/04/23 06:40:49;;;;;;;45.57;37.87;;;;;;;;;;5077750;28;20186;-78
2023/04/23 06:43:15;;;;;;;42.20;36.87;;;;;;;;;;5042533;28;20264;-78
2023/04/23 06:45:41;;;;;;;43.90;36.67;;;;;;;;;;5035979;28;20231;-78
2023/04/23 06:48:07;;;;;;;42.10;36.03;;;;;;;;;;5022525;28;20336;-78
2023/04/23 06:50:33;;;;;;;38.13;33.77;;;;;;;;;;5010208;28;20195;-78
2023/04/23 06:52:59;;;;;;;39.97;33.70;;;;;;;;;;5018871;28;20267;-77
2023/04/23 06:55:25;;;;;;;37.53;33.00;;;;;;;;;;5039528;28;20212;-78
2023/04/23 06:57:52;;;;;;;37.47;32.87;;;;;;;;;;5031754;28;20294;-78
2023/04/23 07:00:18;;;;;;;36.03;31.87;;;;;;;;;;5021236;28;20191;-78
2023/04/23 07:02:45;;;;;;;34.80;30.77;;;;;;;;;;5028226;28;20203;-78
2023/04/23 07:05:12;;;;;;;32.80;29.40;;;;;;;;;;5038976;28;20203;-78
2023/04/23 07:07:39;;;;;;;33.90;30.33;;;;;;;;;;5064737;28;20207;-78
2023/04/23 07:10:06;;;;;;;31.80;28.60;;;;;;;;;;5038535;28;20279;-78
2023/04/23 07:12:32;;;;;;;32.47;29.07;;;;;;;;;;5022004;28;20216;-78
2023/04/23 07:14:58;;;;;;;29.60;26.53;;;;;;;;;;5038721;28;20257;-78
2023/04/23 07:17:24;;;;;;;27.33;24.37;;;;;;;;;;5055280;28;20180;-78
2023/04/23 07:19:50;;;;;;;27.20;24.40;;;;;;;;;;5043667;28;20176;-78
2023/04/23 07:22:16;;;;;;;27.23;24.53;;;;;;;;;;5021859;28;20196;-78
2023/04/23 07:24:42;;;;;;;27.13;24.43;;;;;;;;;;5022078;28;20184;-78
2023/04/23 07:27:08;;;;;;;26.63;23.93;;;;;;;;;;5022439;28;20214;-78
2023/04/23 07:29:34;;;;;;;26.43;23.27;;;;;;;;;;5022457;28;20180;-79
2023/04/23 07:32:01;;;;;;;26.13;23.63;;;;;;;;;;5055079;28;20176;-81
2023/04/23 07:34:27;;;;;;;26.67;24.07;;;;;;;;;;5038270;28;20210;-81
2023/04/23 07:36:55;;;;;;;24.17;21.87;;;;;;;;;;5055106;28;20187;-80
2023/04/23 07:39:21;;;;;;;23.33;20.83;;;;;;;;;;5047254;28;20168;-81
2023/04/23 07:41:47;;;;;;;25.00;22.27;;;;;;;;;;5037882;28;20180;-82
2023/04/23 07:44:13;;;;;;;23.60;21.20;;;;;;;;;;5055736;28;20279;-83
2023/04/23 07:46:39;;;;;;;20.77;18.67;;;;;;;;;;5068237;28;20245;-83
2023/04/23 07:49:06;;;;;;;19.43;17.63;;;;;;;;;;5058123;28;20179;-79
2023/04/23 07:51:32;;;;;;;19.17;17.43;;;;;;;;;;5058127;28;20230;-79
2023/04/23 07:53:58;;;;;;;17.63;16.03;;;;;;;;;;5057733;28;20282;-79
2023/04/23 07:56:25;;;;;;;17.87;16.13;;;;;;;;;;5041401;28;20182;-79
2023/04/23 07:58:52;;;;;;;18.57;16.70;;;;;;;;;;5074389;28;20199;-79
2023/04/23 08:01:19;;;;;;;18.03;16.23;;;;;;;;;;5041964;28;20179;-79
2023/04/23 08:03:45;;;;;;;17.17;15.57;;;;;;;;;;5075429;28;20233;-79
2023/04/23 08:06:11;;;;;;;17.23;15.43;;;;;;;;;;5058233;28;20171;-78
2023/04/23 08:08:38;;;;;;;16.07;14.00;;;;;;;;;;5075310;28;20215;-78
2023/04/23 08:11:05;;;;;;;15.27;13.63;;;;;;;;;;5057593;28;20175;-77
2023/04/23 08:13:31;;;;;;;14.57;13.17;;;;;;;;;;5040905;28;20206;-77
2023/04/23 08:15:57;;;;;;;13.87;12.47;;;;;;;;;;5041098;28;20187;-78
2023/04/23 08:18:23;;;;;;;15.30;13.67;;;;;;;;;;5059669;28;20191;-78
2023/04/23 08:20:49;;;;;;;15.67;12.10;;;;;;;;;;5057362;28;20188;-79
2023/04/23 08:23:16;;;;;;;14.33;12.10;;;;;;;;;;5069535;28;20207;-79
2023/04/23 08:25:42;;;;;;;12.80;11.33;;;;;;;;;;5037476;28;20177;-79
2023/04/23 08:28:08;;;;;;;13.03;11.73;;;;;;;;;;5037344;28;20238;-79
2023/04/23 08:30:34;;;;;;;14.90;11.20;;;;;;;;;;5054206;28;20248;-79
2023/04/23 08:33:00;;;;;;;12.37;11.07;;;;;;;;;;5063697;28;20184;-79
2023/04/23 08:35:26;;;;;;;12.47;11.17;;;;;;;;;;5040519;28;20210;-79
2023/04/23 08:37:52;;;;;;;12.90;10.73;;;;;;;;;;5057136;28;20171;-79
2023/04/23 08:40:18;;;;;;;12.23;10.97;;;;;;;;;;5057134;28;20226;-80
2023/04/23 08:42:47;;;;;;;11.97;10.60;;;;;;;;;;5074684;28;20195;-79
2023/04/23 08:45:13;;;;;;;10.97;9.57;;;;;;;;;;5056714;28;20186;-80
2023/04/23 08:47:43;;;;;;;11.10;8.93;;;;;;;;;;5040711;28;20186;-80
2023/04/23 08:50:13;;;;;;;10.83;8.50;;;;;;;;;;5056475;28;20210;-80
2023/04/23 08:52:45;;;;;;;11.88;8.50;;;;;;;;;;5056426;28;20413;-80
2023/04/23 08:55:13;;;;;;;12.27;8.80;;;;;;;;;;5057145;28;20410;-79
2023/04/23 08:57:40;;;;;;;10.30;8.88;;;;;;;;;;5039603;28;20539;-78
2023/04/23 09:00:07;;;;;;;10.70;9.00;;;;;;;;;;5056008;28;20405;-78
2023/04/23 09:02:34;;;;;;;11.93;8.65;;;;;;;;;;5055791;28;20423;-79
2023/04/23 09:05:02;;;;;;;11.20;8.50;;;;;;;;;;5073224;28;20394;-78
2023/04/23 09:07:28;;;;;;;9.50;8.10;;;;;;;;;;5055223;28;20406;-78
2023/04/23 09:09:54;;;;;;;11.77;8.07;;;;;;;;;;5038824;28;20403;-79
2023/04/23 09:12:20;;;;;;;9.73;7.70;;;;;;;;;;5055620;28;20426;-80
2023/04/23 09:14:46;;;;;;;9.15;6.82;;;;;;;;;;5054824;28;20499;-79
2023/04/23 09:17:12;;;;;;;11.45;7.60;;;;;;;;;;5042652;28;20414;-80
2023/04/23 09:19:39;;;;;;;9.57;6.68;;;;;;;;;;5055584;28;20484;-80
2023/04/23 09:22:07;;;;;;;10.40;6.53;;;;;;;;;;5055264;28;20414;-80
2023/04/23 09:24:33;;;;;;;9.18;5.85;;;;;;;;;;5071877;28;20398;-80
2023/04/23 09:26:59;;;;;;;8.82;5.90;;;;;;;;;;5071539;28;20399;-80
2023/04/23 09:29:25;;;;;;;9.95;5.47;;;;;;;;;;5050107;28;20452;-80
2023/04/23 09:31:53;;;;;;;9.27;4.90;;;;;;;;;;5072101;28;20421;-80
2023/04/23 09:34:21;;;;;;;9.38;4.72;;;;;;;;;;5054631;28;20418;-80
2023/04/23 09:36:51;;;;;;;9.38;4.63;;;;;;;;;;5052109;28;20443;-80
2023/04/23 09:39:23;;;;;;;8.27;4.32;;;;;;;;;;5051354;28;20475;-80
2023/04/23 09:41:53;;;;;;;10.25;4.60;;;;;;;;;;5051615;28;20482;-80
2023/04/23 09:44:21;;;;;;;8.07;4.30;;;;;;;;;;5035050;28;20455;-78
2023/04/23 09:46:47;;;;;;;9.90;4.40;;;;;;;;;;5066259;28;20430;-78
2023/04/23 09:49:14;;;;;;;9.43;4.10;;;;;;;;;;5059134;28;20420;-78
2023/04/23 09:51:40;;;;;;;7.47;3.47;;;;;;;;;;5093104;28;20396;-78
2023/04/23 09:54:13;;;;;;;7.73;3.23;;;;;;;;;;5059487;28;20179;-78
2023/04/23 09:56:43;;;;;;;8.57;3.20;;;;;;;;;;5058901;28;20431;-78
2023/04/23 09:59:21;;;;;;;6.38;3.20;;;;;;;;;;5036449;28;20430;-78
2023/04/23 10:01:47;;;;;;;9.90;3.63;;;;;;;;;;5056474;28;20453;-82
2023/04/23 10:04:21;;;;;;;7.47;3.35;;;;;;;;;;5054870;28;20426;-81
2023/04/23 10:06:57;;;;;;;7.70;3.15;;;;;;;;;;5045107;28;20488;-80
2023/04/23 10:09:23;;;;;;;9.75;3.15;;;;;;;;;;5067300;28;20406;-81
2023/04/23 10:11:54;;;;;;;7.72;2.95;;;;;;;;;;5054792;28;20410;-81
2023/04/23 10:14:21;;;;;;;6.35;2.60;;;;;;;;;;5054860;28;20402;-81
2023/04/23 10:16:50;;;;;;;6.82;2.75;;;;;;;;;;5054853;28;20473;-81
2023/04/23 10:19:18;;;;;;;8.07;2.88;;;;;;;;;;5072575;28;20403;-81
2023/04/23 10:21:46;;;;;;;7.43;2.83;;;;;;;;;;5067246;28;20420;-81
2023/04/23 10:24:13;;;;;;;7.90;2.63;;;;;;;;;;5078656;28;20416;-81
2023/04/23 10:26:41;;;;;;;7.75;2.78;;;;;;;;;;5078518;28;20412;-81
2023/04/23 10:29:13;;;;;;;8.60;2.85;;;;;;;;;;5073272;28;20418;-81
2023/04/23 10:31:40;;;;;;;8.43;2.67;;;;;;;;;;5074154;28;20447;-81
2023/04/23 10:34:06;;;;;;;8.32;3.03;;;;;;;;;;5037476;28;20422;-81
2023/04/23 10:36:33;;;;;;;6.72;2.50;;;;;;;;;;5056551;28;20428;-80
2023/04/23 10:39:03;;;;;;;10.30;2.90;;;;;;;;;;5057893;28;20406;-80
2023/04/23 10:41:33;;;;;;;7.05;2.83;;;;;;;;;;5058892;28;20406;-80
2023/04/23 10:43:59;;;;;;;8.38;2.78;;;;;;;;;;5058154;28;20432;-80
2023/04/23 10:46:29;;;;;;;8.90;2.70;;;;;;;;;;5034130;28;20436;-80
2023/04/23 10:49:15;;;;;;;7.63;2.57;;;;;;;;;;5038463;28;20183;-80
2023/04/23 10:51:41;;;;;;;7.33;2.33;;;;;;;;;;5056278;28;20176;-80
2023/04/23 10:54:13;;;;;;;4.73;2.10;;;;;;;;;;5038790;28;20214;-81
2023/04/23 10:56:40;;;;;;;6.70;2.67;;;;;;;;;;5038727;28;20408;-81
2023/04/23 10:59:28;;;;;;;7.53;2.50;;;;;;;;;;5038246;28;20465;-81
2023/04/23 11:01:55;;;;;;;6.27;1.93;;;;;;;;;;5056556;28;20172;-81
2023/04/23 11:04:28;;;;;;;6.37;2.00;;;;;;;;;;5038374;28;20206;-80
2023/04/23 11:06:55;;;;;;;5.93;2.00;;;;;;;;;;5038608;28;20179;-80
2023/04/23 11:09:31;;;;;;;6.30;2.20;;;;;;;;;;5038467;28;20399;-80
2023/04/23 11:11:57;;;;;;;7.13;2.27;;;;;;;;;;5038911;28;20411;-80
2023/04/23 11:14:55;;;;;;;7.57;2.07;;;;;;;;;;5038603;28;20180;-80
2023/04/23 11:17:22;;;;;;;6.47;1.97;;;;;;;;;;5019870;28;20194;-80
2023/04/23 11:20:09;;;;;;;4.43;1.97;;;;;;;;;;5031637;28;20212;-80
2023/04/23 11:22:38;;;;;;;6.55;2.17;;;;;;;;;;5055389;28;20432;-80
2023/04/23 11:25:05;;;;;;;6.15;2.03;;;;;;;;;;5038420;28;20475;-80
2023/04/23 11:27:31;;;;;;;4.90;1.90;;;;;;;;;;5036918;28;20183;-80
2023/04/23 11:29:57;;;;;;;6.82;2.28;;;;;;;;;;5037815;28;20495;-80
2023/04/23 11:32:23;;;;;;;7.05;2.67;;;;;;;;;;5020817;28;20457;-80
2023/04/23 11:34:52;;;;;;;5.28;2.30;;;;;;;;;;5037432;28;20449;-80
2023/04/23 11:37:18;;;;;;;5.53;2.40;;;;;;;;;;5034869;28;20445;-80
2023/04/23 11:39:46;;;;;;;6.65;2.20;;;;;;;;;;5017063;28;20422;-80
2023/04/23 11:42:13;;;;;;;7.40;2.28;;;;;;;;;;5016940;28;20484;-79
2023/04/23 11:44:40;;;;;;;6.83;2.40;;;;;;;;;;5034920;28;20469;-79
2023/04/23 11:47:10;;;;;;;7.60;2.30;;;;;;;;;;5017025;28;20468;-79
2023/04/23 11:49:37;;;;;;;7.65;2.50;;;;;;;;;;5017416;28;20555;-79
2023/04/23 11:52:03;;;;;;;6.30;1.93;;;;;;;;;;5001809;28;20188;-79
2023/04/23 11:54:29;;;;;;;5.00;1.93;;;;;;;;;;5001508;28;20216;-79
2023/04/23 11:56:57;;;;;;;6.53;1.80;;;;;;;;;;5006280;28;20207;-79
2023/04/23 11:59:23;;;;;;;5.47;1.90;;;;;;;;;;5017687;28;20177;-79
2023/04/23 12:01:50;;;;;;;4.47;1.80;;;;;;;;;;5017829;28;20184;-79
2023/04/23 12:04:18;;;;;;;4.47;1.77;;;;;;;;;;5017824;28;20220;-79
2023/04/23 12:06:45;;;;;;;4.53;1.80;;;;;;;;;;5017776;28;20245;-79
2023/04/23 12:09:11;;;;;;;5.37;2.23;;;;;;;;;;5017533;28;20180;-79
2023/04/23 12:11:38;;;;;;;7.70;2.30;;;;;;;;;;5017037;28;20437;-79
2023/04/23 12:14:04;;;;;;;6.30;2.13;;;;;;;;;;5017247;28;20181;-79
2023/04/23 12:16:34;;;;;;;5.30;2.07;;;;;;;;;;5032515;28;20211;-79
2023/04/23 12:19:00;;;;;;;5.50;2.10;;;;;;;;;;5017334;28;20181;-79
2023/04/23 12:21:29;;;;;;;6.67;2.30;;;;;;;;;;5034004;28;20176;-79
2023/04/23 12:23:57;;;;;;;5.32;1.90;;;;;;;;;;5017019;28;20429;-79
2023/04/23 12:26:24;;;;;;;7.38;2.38;;;;;;;;;;5033138;28;20433;-79
2023/04/23 12:28:51;;;;;;;6.75;2.53;;;;;;;;;;5016285;28;20427;-79
2023/04/23 12:31:26;;;;;;;7.05;2.35;;;;;;;;;;5016275;28;20409;-80
2023/04/23 12:34:01;;;;;;;7.27;2.60;;;;;;;;;;5037344;28;20450;-81
2023/04/23 12:36:29;;;;;;;5.33;2.13;;;;;;;;;;5034677;28;20236;-80
2023/04/23 12:39:15;;;;;;;3.70;2.00;;;;;;;;;;5017028;28;20183;-80
2023/04/23 12:41:41;;;;;;;9.20;2.20;;;;;;;;;;5016931;28;20180;-80
2023/04/23 12:44:07;;;;;;;5.83;2.10;;;;;;;;;;4999843;28;20215;-80
2023/04/23 12:46:33;;;;;;;6.40;2.00;;;;;;;;;;5011714;28;20439;-80
2023/04/23 12:48:59;;;;;;;7.47;2.37;;;;;;;;;;5036488;28;20415;-79
2023/04/23 12:51:25;;;;;;;5.47;2.10;;;;;;;;;;5020254;28;20180;-79
2023/04/23 12:53:51;;;;;;;7.05;2.30;;;;;;;;;;5027677;28;20416;-79
2023/04/23 12:56:17;;;;;;;6.33;1.70;;;;;;;;;;5036588;28;20180;-79
2023/04/23 12:58:43;;;;;;;5.93;2.03;;;;;;;;;;5036364;28;20211;-79
2023/04/23 13:01:11;;;;;;;5.63;1.90;;;;;;;;;;5036503;28;20188;-79
2023/04/23 13:03:37;;;;;;;4.30;2.20;;;;;;;;;;5036200;28;20216;-80
2023/04/23 13:06:03;;;;;;;3.93;1.80;;;;;;;;;;5036421;28;20183;-79
2023/04/23 13:08:29;;;;;;;3.53;1.80;;;;;;;;;;5036296;28;20215;-79
2023/04/23 13:10:55;;;;;;;3.17;1.87;;;;;;;;;;5036528;28;20282;-79
2023/04/23 13:13:21;;;;;;;4.40;1.90;;;;;;;;;;5052882;28;20183;-79
2023/04/23 13:15:47;;;;;;;5.43;2.05;;;;;;;;;;5036040;28;20502;-79
2023/04/23 13:18:13;;;;;;;4.75;2.05;;;;;;;;;;5035373;28;20416;-79
2023/04/23 13:20:40;;;;;;;5.85;2.17;;;;;;;;;;5035149;28;20545;-79
2023/04/23 13:23:07;;;;;;;5.73;2.13;;;;;;;;;;5036135;28;20220;-80
2023/04/23 13:25:34;;;;;;;3.20;1.67;;;;;;;;;;5053725;28;20192;-80
2023/04/23 13:28:00;;;;;;;5.57;1.90;;;;;;;;;;5036118;28;20188;-80
2023/04/23 13:30:26;;;;;;;3.03;1.80;;;;;;;;;;5053825;28;20183;-81
2023/04/23 13:32:52;;;;;;;4.00;2.20;;;;;;;;;;5053612;28;20408;-80
2023/04/23 13:35:18;;;;;;;6.10;1.80;;;;;;;;;;5035970;28;20172;-80
2023/04/23 13:37:44;;;;;;;6.68;2.28;;;;;;;;;;5035314;28;20513;-79
2023/04/23 13:40:10;;;;;;;4.78;2.13;;;;;;;;;;5035378;28;20460;-79
2023/04/23 13:42:37;;;;;;;5.65;1.95;;;;;;;;;;5053473;28;20439;-79
2023/04/23 13:45:05;;;;;;;4.95;2.20;;;;;;;;;;5035307;28;20503;-79
2023/04/23 13:47:33;;;;;;;4.47;1.90;;;;;;;;;;5015603;28;20485;-79
2023/04/23 13:50:01;;;;;;;5.80;2.00;;;;;;;;;;5015623;28;20416;-79
2023/04/23 13:52:28;;;;;;;5.07;2.30;;;;;;;;;;5032833;28;20437;-79
2023/04/23 13:54:55;;;;;;;4.60;2.20;;;;;;;;;;5015506;28;20425;-80
2023/04/23 13:57:22;;;;;;;4.15;1.77;;;;;;;;;;5017189;28;20481;-80
2023/04/23 13:59:48;;;;;;;5.60;1.90;;;;;;;;;;5047543;23;20451;-83
2023/04/23 14:02:15;;;;;;;6.30;1.92;;;;;;;;;;5038839;28;20424;-83
2023/04/23 14:04:41;;;;;;;5.95;2.10;;;;;;;;;;5056705;28;20403;-83
2023/04/23 14:07:07;;;;;;;6.07;2.00;;;;;;;;;;5038625;28;20414;-84
2023/04/23 14:09:33;;;;;;;4.43;1.80;;;;;;;;;;5022491;28;20416;-80
2023/04/23 14:12:00;;;;;;;4.90;1.90;;;;;;;;;;5039827;28;20494;-84
2023/04/23 14:14:26;;;;;;;4.72;1.80;;;;;;;;;;5058665;28;20418;-82
2023/04/23 14:16:52;;;;;;;6.50;1.80;;;;;;;;;;5042043;28;20406;-82
2023/04/23 14:19:18;;;;;;;5.05;1.60;;;;;;;;;;5040944;28;20555;-82
2023/04/23 14:21:44;;;;;;;4.07;1.65;;;;;;;;;;5021755;28;20461;-83
2023/04/23 14:24:33;;;;;;;5.15;1.85;;;;;;;;;;5022519;28;20438;-82